Time;durP1;ratioP1;P1;durP2;ratioP2;P2;SDS_P1;SDS_P2;PMS_P1;PMS_P2;Temp;Humidity;BMP_temperature;BMP_pressure;BME280_temperature;BME280_humidity;BME280_pressure;Samples;Min_cycle;Max_cycle;Signal;HPM_P1;HPM_P2
2022/04/06 00:00:26;;;;;;;0.35;0.35;;;;;;;;;;5018268;28;20018;-81
2022/04/06 00:02:56;;;;;;;4.75;1.30;;;;;;;;;;5022548;28;20501;-78
2022/04/06 00:05:24;;;;;;;2.85;1.73;;;;;;;;;;5015901;28;20123;-76
2022/04/06 00:07:49;;;;;;;1.50;1.40;;;;;;;;;;5016257;28;20037;-77
2022/04/06 00:10:15;;;;;;;1.90;0.52;;;;;;;;;;5015281;28;20022;-79
2022/04/06 00:12:43;;;;;;;0.17;0.17;;;;;;;;;;5016459;28;20446;-79
2022/04/06 00:15:11;;;;;;;0.75;0.75;;;;;;;;;;5012416;28;20026;-79
2022/04/06 00:17:37;;;;;;;1.15;0.90;;;;;;;;;;5015264;28;20439;-80
2022/04/06 00:20:04;;;;;;;1.45;1.08;;;;;;;;;;5016037;28;20069;-81
2022/04/06 00:22:32;;;;;;;0.47;0.47;;;;;;;;;;5015931;28;20030;-76
2022/04/06 00:25:00;;;;;;;0.85;0.85;;;;;;;;;;5015029;28;20061;-80
2022/04/06 00:27:25;;;;;;;2.70;2.50;;;;;;;;;;5015757;28;20084;-76
2022/04/06 00:29:51;;;;;;;3.00;1.05;;;;;;;;;;5015855;28;20355;-81
2022/04/06 00:32:21;;;;;;;1.85;1.60;;;;;;;;;;5035745;28;20045;-81
2022/04/06 00:37:30;;;;;;;1.40;0.70;;;;;;;;;;5029027;28;20041;-78
2022/04/06 00:39:56;;;;;;;0.68;0.68;;;;;;;;;;5015865;28;20018;-78
2022/04/06 00:42:21;;;;;;;0.65;0.63;;;;;;;;;;5015756;28;20348;-81
2022/04/06 00:44:49;;;;;;;1.50;1.40;;;;;;;;;;5014609;28;20036;-82
2022/04/06 00:47:17;;;;;;;2.90;1.35;;;;;;;;;;5015351;28;20029;-79
2022/04/06 00:49:44;;;;;;;2.42;1.85;;;;;;;;;;5030509;28;20410;-80
2022/04/06 00:52:14;;;;;;;0.85;0.85;;;;;;;;;;5014396;28;20026;-81
2022/04/06 00:54:39;;;;;;;2.90;0.70;;;;;;;;;;5013783;28;20116;-80
2022/04/06 00:57:07;;;;;;;0.28;0.28;;;;;;;;;;5013692;28;20116;-80
2022/04/06 00:59:35;;;;;;;2.17;1.88;;;;;;;;;;5013803;28;20025;-80
2022/04/06 01:02:03;;;;;;;0.43;0.43;;;;;;;;;;5019570;28;20029;-79
2022/04/06 01:04:28;;;;;;;1.38;0.80;;;;;;;;;;5014668;28;20079;-80
2022/04/06 01:06:56;;;;;;;0.30;0.30;;;;;;;;;;5014818;28;20408;-81
2022/04/06 01:09:24;;;;;;;2.03;0.88;;;;;;;;;;5014638;28;20233;-80
2022/04/06 01:11:51;;;;;;;2.75;2.50;;;;;;;;;;5013768;28;20025;-78
2022/04/06 01:14:19;;;;;;;10.65;4.32;;;;;;;;;;5013540;28;20032;-81
2022/04/06 01:17:07;;;;;;;2.55;0.30;;;;;;;;;;5009938;28;20048;-80
2022/04/06 01:19:38;;;;;;;5.70;2.40;;;;;;;;;;5013643;28;20026;-80
2022/04/06 01:22:16;;;;;;;2.63;1.02;;;;;;;;;;5013711;28;20032;-78
2022/04/06 01:24:45;;;;;;;0.82;0.73;;;;;;;;;;5012938;28;20040;-79
2022/04/06 01:27:11;;;;;;;0.55;0.20;;;;;;;;;;5006057;28;20170;-81
2022/04/06 01:29:37;;;;;;;1.50;1.40;;;;;;;;;;5014703;28;20496;-80
2022/04/06 01:32:09;;;;;;;0.68;0.68;;;;;;;;;;5014633;28;20025;-79
2022/04/06 01:34:34;;;;;;;1.45;0.73;;;;;;;;;;5008567;28;20636;-78
2022/04/06 01:37:00;;;;;;;2.08;1.80;;;;;;;;;;5014412;28;20026;-78
2022/04/06 01:39:25;;;;;;;0.30;0.30;;;;;;;;;;5014086;28;20605;-80
2022/04/06 01:41:50;;;;;;;0.55;0.55;;;;;;;;;;5013851;28;20475;-78
2022/04/06 01:44:15;;;;;;;2.88;1.98;;;;;;;;;;5014286;28;20450;-79
2022/04/06 01:46:43;;;;;;;7.93;2.65;;;;;;;;;;5014262;28;20502;-82
2022/04/06 01:52:13;;;;;;;1.70;1.02;;;;;;;;;;5014135;28;20040;-79
2022/04/06 01:54:42;;;;;;;4.78;2.22;;;;;;;;;;5013684;28;20033;-81
2022/04/06 01:57:08;;;;;;;1.65;0.17;;;;;;;;;;5013729;28;20048;-79
2022/04/06 01:59:35;;;;;;;1.05;0.50;;;;;;;;;;5014992;28;20025;-82
2022/04/06 02:02:03;;;;;;;0.85;0.85;;;;;;;;;;5015620;28;20124;-77
2022/04/06 02:04:33;;;;;;;0.52;0.52;;;;;;;;;;5013236;28;20548;-79
2022/04/06 02:07:03;;;;;;;11.95;1.63;;;;;;;;;;5013430;28;20427;-79
2022/04/06 02:09:28;;;;;;;0.20;0.20;;;;;;;;;;5013710;28;20044;-81
2022/04/06 02:11:56;;;;;;;1.65;0.55;;;;;;;;;;5013892;28;20030;-80
2022/04/06 02:14:22;;;;;;;1.20;0.88;;;;;;;;;;5013695;28;20051;-81
2022/04/06 02:16:50;;;;;;;2.28;1.35;;;;;;;;;;5013292;28;20040;-79
2022/04/06 02:19:16;;;;;;;0.30;0.30;;;;;;;;;;5013755;28;20068;-81
2022/04/06 02:21:41;;;;;;;4.32;2.13;;;;;;;;;;5007956;28;20033;-75
2022/04/06 02:24:07;;;;;;;0.17;0.17;;;;;;;;;;5013298;28;20033;-80
2022/04/06 02:26:35;;;;;;;0.65;0.65;;;;;;;;;;5013125;28;20032;-78
2022/04/06 02:29:05;;;;;;;0.38;0.38;;;;;;;;;;5013108;28;20037;-79
2022/04/06 02:31:30;;;;;;;2.10;1.13;;;;;;;;;;5020880;28;20030;-80
2022/04/06 02:33:56;;;;;;;1.00;1.00;;;;;;;;;;5028918;28;20087;-81
2022/04/06 02:36:23;;;;;;;5.28;1.45;;;;;;;;;;5013949;28;20038;-81
2022/04/06 02:38:51;;;;;;;0.20;0.20;;;;;;;;;;5013469;28;20160;-76
2022/04/06 02:41:16;;;;;;;0.22;0.22;;;;;;;;;;5013889;28;20033;-80
2022/04/06 02:43:46;;;;;;;0.15;0.08;;;;;;;;;;5013588;28;20041;-81
2022/04/06 02:46:12;;;;;;;2.28;0.82;;;;;;;;;;5013953;28;20488;-81
2022/04/06 02:48:37;;;;;;;0.70;0.50;;;;;;;;;;5013510;28;20117;-80
2022/04/06 02:51:05;;;;;;;3.67;0.52;;;;;;;;;;5013350;28;20032;-81
2022/04/06 02:53:30;;;;;;;2.30;0.98;;;;;;;;;;5013699;28;20034;-75
2022/04/06 02:55:56;;;;;;;3.30;1.77;;;;;;;;;;5012116;28;20022;-79
2022/04/06 02:58:23;;;;;;;0.50;0.50;;;;;;;;;;5013389;28;20030;-77
2022/04/06 03:00:48;;;;;;;0.30;0.30;;;;;;;;;;5013305;28;20030;-81
2022/04/06 03:03:18;;;;;;;0.60;0.45;;;;;;;;;;5013353;28;20025;-75
2022/04/06 03:05:48;;;;;;;0.10;0.10;;;;;;;;;;5012258;28;20790;-81
2022/04/06 03:08:15;;;;;;;1.65;1.55;;;;;;;;;;5013344;28;20021;-79
2022/04/06 03:10:45;;;;;;;0.10;0.10;;;;;;;;;;5016955;28;20030;-80
2022/04/06 03:13:12;;;;;;;0.15;0.15;;;;;;;;;;5017162;28;20083;-80
2022/04/06 03:15:38;;;;;;;0.22;0.22;;;;;;;;;;5015742;28;20112;-80
2022/04/06 03:18:06;;;;;;;1.52;1.42;;;;;;;;;;5016084;28;20113;-80
2022/04/06 03:20:31;;;;;;;0.90;0.55;;;;;;;;;;5017177;28;20034;-80
2022/04/06 03:23:02;;;;;;;0.43;0.43;;;;;;;;;;5016950;28;20044;-77
2022/04/06 03:25:27;;;;;;;0.08;0.08;;;;;;;;;;5016600;28;20399;-80
2022/04/06 03:27:52;;;;;;;0.10;0.10;;;;;;;;;;5031850;28;20032;-79
2022/04/06 03:30:23;;;;;;;0.70;0.52;;;;;;;;;;5018612;28;20044;-79
2022/04/06 03:32:49;;;;;;;1.85;0.85;;;;;;;;;;5016789;28;20022;-75
2022/04/06 03:35:19;;;;;;;0.30;0.30;;;;;;;;;;5031702;28;20030;-81
2022/04/06 03:37:44;;;;;;;0.43;0.32;;;;;;;;;;5031853;28;20514;-80
2022/04/06 03:40:10;;;;;;;0.43;0.43;;;;;;;;;;5016475;28;20026;-79
2022/04/06 03:42:41;;;;;;;0.10;0.10;;;;;;;;;;5015469;28;20124;-80
2022/04/06 03:45:07;;;;;;;0.75;0.70;;;;;;;;;;4999197;28;20355;-81
2022/04/06 03:47:36;;;;;;;0.95;0.73;;;;;;;;;;5016587;28;20026;-79
2022/04/06 03:50:04;;;;;;;0.35;0.35;;;;;;;;;;5015426;28;20036;-80
2022/04/06 03:52:29;;;;;;;0.32;0.30;;;;;;;;;;5015250;28;20435;-78
2022/04/06 03:54:55;;;;;;;0.20;0.20;;;;;;;;;;5015788;28;20049;-79
2022/04/06 03:57:20;;;;;;;0.43;0.43;;;;;;;;;;5014762;28;20382;-78
2022/04/06 03:59:48;;;;;;;0.15;0.15;;;;;;;;;;5016648;28;20025;-76
2022/04/06 04:02:16;;;;;;;0.22;0.10;;;;;;;;;;5013388;28;20573;-76
2022/04/06 04:04:41;;;;;;;0.10;0.10;;;;;;;;;;5018295;28;20041;-80
2022/04/06 04:07:09;;;;;;;0.38;0.38;;;;;;;;;;5030792;28;20439;-79
2022/04/06 04:09:35;;;;;;;2.45;1.90;;;;;;;;;;5015998;28;20048;-80
2022/04/06 04:12:03;;;;;;;0.00;0.00;;;;;;;;;;5014701;28;20040;-79
2022/04/06 04:14:32;;;;;;;0.77;0.38;;;;;;;;;;5015201;28;20084;-77
2022/04/06 04:17:00;;;;;;;0.52;0.38;;;;;;;;;;5014997;28;20061;-77
2022/04/06 04:19:25;;;;;;;0.30;0.30;;;;;;;;;;5015604;28;20029;-78
2022/04/06 04:21:53;;;;;;;1.10;1.00;;;;;;;;;;5015455;28;20034;-79
2022/04/06 04:24:31;;;;;;;0.32;0.32;;;;;;;;;;5030255;28;20022;-79
2022/04/06 04:26:56;;;;;;;1.25;0.90;;;;;;;;;;5013630;28;20097;-81
2022/04/06 04:29:24;;;;;;;0.65;0.60;;;;;;;;;;5016833;28;20034;-80
2022/04/06 04:31:51;;;;;;;1.92;0.88;;;;;;;;;;5017811;28;20082;-79
2022/04/06 04:34:19;;;;;;;0.40;0.40;;;;;;;;;;5015062;28;20072;-79
2022/04/06 04:36:47;;;;;;;0.20;0.15;;;;;;;;;;5031130;28;20359;-79
2022/04/06 04:39:12;;;;;;;1.15;0.95;;;;;;;;;;5014808;28;20065;-80
2022/04/06 04:41:37;;;;;;;1.40;1.30;;;;;;;;;;5015597;28;20325;-80
2022/04/06 04:44:05;;;;;;;0.22;0.22;;;;;;;;;;5014984;28;20328;-77
2022/04/06 04:46:34;;;;;;;0.20;0.20;;;;;;;;;;5014974;28;20030;-78
2022/04/06 04:48:59;;;;;;;4.10;1.38;;;;;;;;;;5015164;28;20033;-80
2022/04/06 04:51:29;;;;;;;0.17;0.17;;;;;;;;;;5014781;28;20038;-80
2022/04/06 04:53:57;;;;;;;0.35;0.35;;;;;;;;;;5015185;28;20022;-77
2022/04/06 04:56:28;;;;;;;2.67;0.85;;;;;;;;;;5012802;28;20390;-80
2022/04/06 04:58:53;;;;;;;1.20;0.75;;;;;;;;;;5030403;28;20169;-79
2022/04/06 05:01:19;;;;;;;0.47;0.47;;;;;;;;;;5017525;28;20120;-80
2022/04/06 05:03:44;;;;;;;0.50;0.32;;;;;;;;;;5017175;28;20030;-79
2022/04/06 05:06:12;;;;;;;0.70;0.68;;;;;;;;;;5014572;28;20043;-81
2022/04/06 05:08:37;;;;;;;0.63;0.40;;;;;;;;;;5015087;28;20033;-79
2022/04/06 05:11:07;;;;;;;0.00;0.00;;;;;;;;;;5017192;28;20030;-80
2022/04/06 05:13:33;;;;;;;0.57;0.57;;;;;;;;;;5015262;28;20025;-77
2022/04/06 05:15:58;;;;;;;0.52;0.28;;;;;;;;;;5014710;28;20029;-81
2022/04/06 05:18:25;;;;;;;0.75;0.75;;;;;;;;;;5014582;28;20038;-77
2022/04/06 05:20:53;;;;;;;2.05;1.85;;;;;;;;;;5014850;28;20053;-78
2022/04/06 05:23:18;;;;;;;0.20;0.20;;;;;;;;;;5013818;28;20036;-80
2022/04/06 05:25:46;;;;;;;3.13;0.52;;;;;;;;;;5014345;28;20033;-81
2022/04/06 05:28:11;;;;;;;0.98;0.68;;;;;;;;;;5014194;28;20514;-80
2022/04/06 05:30:41;;;;;;;0.40;0.40;;;;;;;;;;5013937;28;20034;-80
2022/04/06 05:33:06;;;;;;;0.10;0.10;;;;;;;;;;5014588;28;20029;-82
2022/04/06 05:35:34;;;;;;;0.63;0.63;;;;;;;;;;5014194;28;20131;-78
2022/04/06 05:38:02;;;;;;;1.63;0.35;;;;;;;;;;5014826;28;20446;-81
2022/04/06 05:40:30;;;;;;;0.00;0.00;;;;;;;;;;5029649;28;20037;-79
2022/04/06 05:42:55;;;;;;;0.32;0.32;;;;;;;;;;4997216;28;20034;-79
2022/04/06 05:45:21;;;;;;;0.10;0.10;;;;;;;;;;5013976;28;20038;-78
2022/04/06 05:47:46;;;;;;;0.45;0.45;;;;;;;;;;5014512;28;20018;-80
2022/04/06 05:50:12;;;;;;;0.30;0.30;;;;;;;;;;5014789;28;20030;-81
2022/04/06 05:52:40;;;;;;;0.15;0.15;;;;;;;;;;5014760;28;20025;-73
2022/04/06 05:55:06;;;;;;;0.35;0.35;;;;;;;;;;5014243;28;20037;-81
2022/04/06 05:57:34;;;;;;;0.32;0.32;;;;;;;;;;5013273;28;20528;-80
2022/04/06 05:59:59;;;;;;;0.50;0.50;;;;;;;;;;5023889;28;20026;-81
2022/04/06 06:02:25;;;;;;;0.22;0.22;;;;;;;;;;5021827;28;20029;-77
2022/04/06 06:04:54;;;;;;;0.30;0.30;;;;;;;;;;5014755;28;20026;-78
2022/04/06 06:07:22;;;;;;;0.17;0.13;;;;;;;;;;5008072;28;20029;-81
2022/04/06 06:09:49;;;;;;;5.88;1.25;;;;;;;;;;5017159;28;20030;-78
2022/04/06 06:12:17;;;;;;;0.10;0.10;;;;;;;;;;5010107;28;20037;-78
2022/04/06 06:14:45;;;;;;;0.10;0.10;;;;;;;;;;5014116;28;20041;-79
2022/04/06 06:17:12;;;;;;;3.00;0.73;;;;;;;;;;5014684;28;20030;-78
2022/04/06 06:19:37;;;;;;;0.43;0.43;;;;;;;;;;5013914;28;20017;-79
2022/04/06 06:22:08;;;;;;;0.85;0.82;;;;;;;;;;5013033;28;20440;-83
2022/04/06 06:25:21;;;;;;;0.05;0.05;;;;;;;;;;5012940;28;20040;-82
2022/04/06 06:27:46;;;;;;;10.90;0.68;;;;;;;;;;5013076;28;20026;-81
2022/04/06 06:30:13;;;;;;;0.25;0.25;;;;;;;;;;5019901;28;20463;-83
2022/04/06 06:32:41;;;;;;;0.95;0.77;;;;;;;;;;5018801;28;20442;-81
2022/04/06 06:35:10;;;;;;;0.20;0.20;;;;;;;;;;5014334;28;20049;-80
2022/04/06 06:41:42;;;;;;;0.00;0.00;;;;;;;;;;4944029;29;20381;-81
2022/04/06 06:44:08;;;;;;;1.10;1.02;;;;;;;;;;4934578;29;20533;-78
2022/04/06 06:46:35;;;;;;;0.00;0.00;;;;;;;;;;4945685;29;20047;-80
2022/04/06 06:49:03;;;;;;;0.47;0.47;;;;;;;;;;4956712;29;20106;-79
2022/04/06 06:51:30;;;;;;;0.50;0.50;;;;;;;;;;4956560;29;20053;-80
2022/04/06 06:53:59;;;;;;;0.15;0.15;;;;;;;;;;4957634;29;20492;-81
2022/04/06 06:56:24;;;;;;;0.47;0.47;;;;;;;;;;4957080;29;20130;-80
2022/04/06 06:58:50;;;;;;;0.15;0.15;;;;;;;;;;4941434;29;20114;-80
2022/04/06 07:01:15;;;;;;;4.72;2.03;;;;;;;;;;4945486;28;20070;-82
2022/04/06 07:03:41;;;;;;;1.40;0.88;;;;;;;;;;4957132;28;20176;-79
2022/04/06 07:06:08;;;;;;;0.40;0.40;;;;;;;;;;4957176;29;20076;-81
2022/04/06 07:08:34;;;;;;;2.03;1.27;;;;;;;;;;4956774;28;20038;-82
2022/04/06 07:11:01;;;;;;;0.20;0.20;;;;;;;;;;4956031;29;20055;-80
2022/04/06 07:13:31;;;;;;;0.00;0.00;;;;;;;;;;4941777;29;20031;-79
2022/04/06 07:15:57;;;;;;;0.32;0.32;;;;;;;;;;4954138;28;20023;-81
2022/04/06 07:18:25;;;;;;;0.00;0.00;;;;;;;;;;4996674;28;20433;-76
2022/04/06 07:20:53;;;;;;;0.17;0.17;;;;;;;;;;5021926;28;20439;-80
2022/04/06 07:23:18;;;;;;;0.47;0.47;;;;;;;;;;5021633;28;20037;-78
2022/04/06 07:25:44;;;;;;;0.55;0.55;;;;;;;;;;5015686;28;20033;-77
2022/04/06 07:28:11;;;;;;;0.63;0.50;;;;;;;;;;5010917;28;20112;-81
2022/04/06 07:30:39;;;;;;;1.13;0.30;;;;;;;;;;5013547;28;20032;-80
2022/04/06 07:33:04;;;;;;;2.33;0.98;;;;;;;;;;5013732;28;20037;-81
2022/04/06 07:35:31;;;;;;;0.10;0.10;;;;;;;;;;5017224;28;20026;-76
2022/04/06 07:37:57;;;;;;;0.35;0.32;;;;;;;;;;5014716;28;20076;-80
2022/04/06 07:40:25;;;;;;;0.63;0.57;;;;;;;;;;5013256;28;20455;-79
2022/04/06 07:42:56;;;;;;;0.25;0.25;;;;;;;;;;5015146;28;20068;-77
2022/04/06 07:45:22;;;;;;;0.20;0.20;;;;;;;;;;5015342;28;20478;-76
2022/04/06 07:47:50;;;;;;;0.20;0.20;;;;;;;;;;5018770;28;20029;-77
2022/04/06 07:50:18;;;;;;;0.35;0.35;;;;;;;;;;5017060;28;20116;-77
2022/04/06 07:52:43;;;;;;;18.00;1.02;;;;;;;;;;5011492;28;20096;-77
2022/04/06 07:55:10;;;;;;;0.15;0.15;;;;;;;;;;5013299;28;20454;-77
2022/04/06 07:57:40;;;;;;;0.50;0.43;;;;;;;;;;5012501;28;20034;-77
2022/04/06 08:00:15;;;;;;;0.10;0.10;;;;;;;;;;5014971;28;20140;-78
2022/04/06 08:02:43;;;;;;;0.38;0.38;;;;;;;;;;5017224;28;20053;-79
2022/04/06 08:05:29;;;;;;;0.20;0.13;;;;;;;;;;5017289;28;20080;-75
2022/04/06 08:07:57;;;;;;;0.00;0.00;;;;;;;;;;5022787;28;20046;-79
2022/04/06 08:10:24;;;;;;;0.15;0.15;;;;;;;;;;5015475;28;20030;-77
2022/04/06 08:12:50;;;;;;;0.52;0.52;;;;;;;;;;5011189;28;20490;-78
2022/04/06 08:15:16;;;;;;;12.85;0.75;;;;;;;;;;5014564;28;20030;-82
2022/04/06 08:17:44;;;;;;;0.00;0.00;;;;;;;;;;5014826;28;20026;-77
2022/04/06 08:20:11;;;;;;;0.28;0.28;;;;;;;;;;5016095;28;20057;-79
2022/04/06 08:22:38;;;;;;;0.30;0.30;;;;;;;;;;5015329;28;20107;-78
2022/04/06 08:25:04;;;;;;;0.10;0.10;;;;;;;;;;5013784;28;20045;-78
2022/04/06 08:27:31;;;;;;;0.17;0.17;;;;;;;;;;5014608;28;20037;-78
2022/04/06 08:29:56;;;;;;;1.70;0.93;;;;;;;;;;5017551;28;20312;-82
2022/04/06 08:32:30;;;;;;;3.75;0.80;;;;;;;;;;5030286;28;20033;-85
2022/04/06 08:34:55;;;;;;;0.50;0.32;;;;;;;;;;5016457;28;20037;-84
2022/04/06 08:37:23;;;;;;;1.08;1.00;;;;;;;;;;5015372;28;20046;-79
2022/04/06 08:39:50;;;;;;;0.15;0.13;;;;;;;;;;5015407;28;20026;-80
2022/04/06 08:42:16;;;;;;;0.60;0.60;;;;;;;;;;5016468;28;20116;-79
2022/04/06 08:44:41;;;;;;;2.80;1.75;;;;;;;;;;5014436;28;20105;-80
2022/04/06 08:47:17;;;;;;;0.30;0.30;;;;;;;;;;5031609;28;20459;-82
2022/04/06 08:49:45;;;;;;;1.40;1.10;;;;;;;;;;5012592;28;20030;-80
2022/04/06 08:52:11;;;;;;;0.20;0.20;;;;;;;;;;5014184;28;20044;-80
2022/04/06 08:54:36;;;;;;;0.52;0.30;;;;;;;;;;5036802;28;20021;-79
2022/04/06 08:57:05;;;;;;;0.20;0.20;;;;;;;;;;5015552;28;20033;-79
2022/04/06 08:59:31;;;;;;;0.77;0.75;;;;;;;;;;5029468;28;20037;-82
2022/04/06 09:01:59;;;;;;;0.65;0.38;;;;;;;;;;5013612;28;20447;-79
2022/04/06 09:04:26;;;;;;;0.40;0.40;;;;;;;;;;5016561;28;20352;-82
2022/04/06 09:06:51;;;;;;;0.52;0.52;;;;;;;;;;5012543;28;20104;-82
2022/04/06 09:09:21;;;;;;;0.08;0.08;;;;;;;;;;5014595;28;20424;-77
2022/04/06 09:11:47;;;;;;;0.15;0.15;;;;;;;;;;5014566;28;20026;-79
2022/04/06 09:14:14;;;;;;;0.20;0.20;;;;;;;;;;5027899;28;20041;-78
2022/04/06 09:16:40;;;;;;;0.10;0.10;;;;;;;;;;5010601;28;20040;-78
2022/04/06 09:19:14;;;;;;;1.27;0.55;;;;;;;;;;5030334;28;20391;-80
2022/04/06 09:21:39;;;;;;;0.05;0.03;;;;;;;;;;5028286;28;20038;-79
2022/04/06 09:24:05;;;;;;;0.25;0.25;;;;;;;;;;5013820;28;20096;-80
2022/04/06 09:26:33;;;;;;;0.00;0.00;;;;;;;;;;5012855;28;20037;-77
2022/04/06 09:29:01;;;;;;;0.20;0.20;;;;;;;;;;5016088;28;20125;-81
2022/04/06 09:31:39;;;;;;;0.35;0.35;;;;;;;;;;5010719;28;20036;-79
2022/04/06 09:34:04;;;;;;;0.25;0.25;;;;;;;;;;5013485;28;20030;-78
2022/04/06 09:36:34;;;;;;;0.00;0.00;;;;;;;;;;5012272;28;20089;-79
2022/04/06 09:39:00;;;;;;;0.50;0.50;;;;;;;;;;5019023;28;20034;-79
2022/04/06 09:41:25;;;;;;;0.00;0.00;;;;;;;;;;5013991;28;20029;-80
2022/04/06 09:43:53;;;;;;;0.55;0.40;;;;;;;;;;5029930;28;20034;-81
2022/04/06 09:49:18;;;;;;;0.43;0.43;;;;;;;;;;5015309;28;20107;-79
2022/04/06 09:51:48;;;;;;;0.20;0.20;;;;;;;;;;5011783;28;20455;-79
2022/04/06 09:54:20;;;;;;;0.00;0.00;;;;;;;;;;5010068;28;20030;-78
2022/04/06 09:56:48;;;;;;;0.45;0.35;;;;;;;;;;5026406;28;20026;-80
2022/04/06 09:59:16;;;;;;;0.05;0.05;;;;;;;;;;5013126;28;22495;-80
2022/04/06 10:02:15;;;;;;;0.17;0.17;;;;;;;;;;5014406;28;20435;-80
2022/04/06 10:07:48;;;;;;;0.00;0.00;;;;;;;;;;5015677;28;20052;-79
2022/04/06 10:10:14;;;;;;;0.10;0.10;;;;;;;;;;5012446;28;20026;-78
2022/04/06 10:12:40;;;;;;;0.00;0.00;;;;;;;;;;5013826;28;20032;-80
2022/04/06 10:15:05;;;;;;;0.25;0.20;;;;;;;;;;5008130;28;20113;-79
2022/04/06 10:17:31;;;;;;;0.10;0.10;;;;;;;;;;5013788;28;20113;-80
2022/04/06 10:21:00;;;;;;;0.00;0.00;;;;;;;;;;5023070;28;20022;-80
2022/04/06 10:23:57;;;;;;;1.67;0.65;;;;;;;;;;4964087;28;20054;-83
2022/04/06 10:26:48;;;;;;;0.00;0.00;;;;;;;;;;4964785;28;20038;-78
2022/04/06 10:29:13;;;;;;;0.88;0.82;;;;;;;;;;4964176;28;20031;-79
2022/04/06 10:31:39;;;;;;;0.55;0.55;;;;;;;;;;4966207;28;20061;-80
2022/04/06 10:34:20;;;;;;;0.35;0.15;;;;;;;;;;4981013;28;20073;-80
2022/04/06 10:37:05;;;;;;;0.10;0.10;;;;;;;;;;5012444;28;20101;-77
2022/04/06 10:39:30;;;;;;;0.10;0.10;;;;;;;;;;5009397;28;20032;-77
2022/04/06 10:42:31;;;;;;;0.10;0.10;;;;;;;;;;5009599;28;20351;-75
2022/04/06 10:44:59;;;;;;;0.10;0.10;;;;;;;;;;5015621;28;20033;-75
2022/04/06 10:47:24;;;;;;;0.00;0.00;;;;;;;;;;5017958;28;20048;-77
2022/04/06 10:50:08;;;;;;;0.17;0.17;;;;;;;;;;5011721;28;20021;-76
2022/04/06 10:52:33;;;;;;;0.03;0.03;;;;;;;;;;5011615;28;20034;-75
2022/04/06 10:55:10;;;;;;;0.28;0.28;;;;;;;;;;5010445;28;20017;-76
2022/04/06 10:57:57;;;;;;;0.00;0.00;;;;;;;;;;5011886;28;20112;-75
2022/04/06 11:00:24;;;;;;;0.52;0.52;;;;;;;;;;5010151;28;20534;-76
2022/04/06 11:03:23;;;;;;;0.30;0.30;;;;;;;;;;5009263;28;21282;-77
2022/04/06 11:05:52;;;;;;;0.30;0.30;;;;;;;;;;5013888;28;20030;-85
2022/04/06 11:11:37;;;;;;;0.15;0.15;;;;;;;;;;5012711;28;20498;-79
2022/04/06 11:14:05;;;;;;;0.50;0.50;;;;;;;;;;5013378;28;20414;-78
2022/04/06 11:16:48;;;;;;;0.20;0.20;;;;;;;;;;5025052;28;20025;-78
2022/04/06 11:19:16;;;;;;;0.13;0.13;;;;;;;;;;5012890;28;20033;-80
2022/04/06 11:21:55;;;;;;;0.03;0.03;;;;;;;;;;5011008;28;20366;-78
2022/04/06 11:24:23;;;;;;;0.10;0.10;;;;;;;;;;5012240;28;20095;-78
2022/04/06 11:26:50;;;;;;;8.00;0.45;;;;;;;;;;5011405;28;20053;-79
2022/04/06 11:29:17;;;;;;;0.63;0.63;;;;;;;;;;5014181;28;20374;-80
2022/04/06 11:31:52;;;;;;;2.38;0.93;;;;;;;;;;5010848;28;20038;-79
2022/04/06 11:34:34;;;;;;;0.10;0.10;;;;;;;;;;5012707;28;20064;-80
2022/04/06 11:37:01;;;;;;;0.10;0.10;;;;;;;;;;5007240;28;20021;-81
2022/04/06 11:39:33;;;;;;;0.00;0.00;;;;;;;;;;4998814;28;20030;-75
2022/04/06 11:42:15;;;;;;;0.67;0.67;;;;;;;;;;5015418;28;20029;-78
2022/04/06 11:44:43;;;;;;;0.08;0.08;;;;;;;;;;5014810;28;20293;-76
2022/04/06 11:47:08;;;;;;;0.00;0.00;;;;;;;;;;5025351;28;20119;-75
2022/04/06 11:49:35;;;;;;;0.13;0.13;;;;;;;;;;5021907;28;20025;-79
2022/04/06 11:52:01;;;;;;;0.17;0.17;;;;;;;;;;5013754;28;20164;-76
2022/04/06 11:54:27;;;;;;;0.30;0.30;;;;;;;;;;5031209;28;20109;-76
2022/04/06 11:56:55;;;;;;;0.10;0.10;;;;;;;;;;5014686;28;20045;-82
2022/04/06 11:59:22;;;;;;;0.17;0.10;;;;;;;;;;5013797;28;20065;-80
2022/04/06 12:01:51;;;;;;;1.38;0.75;;;;;;;;;;5010729;28;20022;-79
2022/04/06 12:04:22;;;;;;;0.75;0.75;;;;;;;;;;5014296;28;20029;-81
2022/04/06 12:06:54;;;;;;;0.15;0.15;;;;;;;;;;5013492;28;20095;-79
2022/04/06 12:09:20;;;;;;;0.13;0.13;;;;;;;;;;5010519;28;20034;-78
2022/04/06 12:11:54;;;;;;;0.05;0.05;;;;;;;;;;5014241;28;20034;-76
2022/04/06 12:14:20;;;;;;;0.10;0.10;;;;;;;;;;5010639;28;20053;-77
2022/04/06 12:16:53;;;;;;;0.10;0.10;;;;;;;;;;5028949;28;20054;-80
2022/04/06 12:19:19;;;;;;;0.50;0.50;;;;;;;;;;5028991;28;20033;-79
2022/04/06 12:21:46;;;;;;;0.00;0.00;;;;;;;;;;5013169;28;20114;-77
2022/04/06 12:24:17;;;;;;;0.22;0.20;;;;;;;;;;5019394;28;20091;-77
2022/04/06 12:26:54;;;;;;;0.10;0.10;;;;;;;;;;5009112;28;20630;-76
2022/04/06 12:29:20;;;;;;;2.55;1.40;;;;;;;;;;5013476;28;20418;-77
2022/04/06 12:31:46;;;;;;;0.10;0.10;;;;;;;;;;5014585;28;20033;-78
2022/04/06 12:34:31;;;;;;;0.25;0.25;;;;;;;;;;5014836;28;20069;-78
2022/04/06 12:36:56;;;;;;;0.25;0.25;;;;;;;;;;5009578;28;20118;-78
2022/04/06 12:39:24;;;;;;;0.28;0.28;;;;;;;;;;5012657;28;20284;-78
2022/04/06 12:42:04;;;;;;;0.45;0.45;;;;;;;;;;5015742;28;20029;-78
2022/04/06 12:44:34;;;;;;;3.72;0.80;;;;;;;;;;5015672;28;20106;-79
2022/04/06 12:47:02;;;;;;;0.10;0.10;;;;;;;;;;5012055;28;20451;-78
2022/04/06 12:49:46;;;;;;;0.35;0.35;;;;;;;;;;5012210;28;20030;-79
2022/04/06 12:52:19;;;;;;;0.30;0.30;;;;;;;;;;5013878;28;20094;-79
2022/04/06 12:54:51;;;;;;;0.30;0.30;;;;;;;;;;5008449;28;20036;-79
2022/04/06 12:57:19;;;;;;;0.10;0.10;;;;;;;;;;5024226;28;20164;-78
2022/04/06 13:00:08;;;;;;;0.25;0.25;;;;;;;;;;5013867;28;20183;-79
2022/04/06 13:02:36;;;;;;;1.17;0.25;;;;;;;;;;5013226;28;20077;-76
2022/04/06 13:05:10;;;;;;;0.47;0.47;;;;;;;;;;5004736;28;20022;-77
2022/04/06 13:07:39;;;;;;;0.08;0.03;;;;;;;;;;5013412;28;20038;-77
2022/04/06 13:10:41;;;;;;;0.00;0.00;;;;;;;;;;5012720;28;20034;-78
2022/04/06 13:13:07;;;;;;;0.00;0.00;;;;;;;;;;4992106;28;20030;-78
2022/04/06 13:15:33;;;;;;;0.00;0.00;;;;;;;;;;5003044;28;20180;-79
2022/04/06 13:18:07;;;;;;;0.00;0.00;;;;;;;;;;5030179;28;20053;-79
2022/04/06 13:20:35;;;;;;;0.57;0.57;;;;;;;;;;5012848;28;20431;-80
2022/04/06 13:23:01;;;;;;;0.20;0.20;;;;;;;;;;5013387;28;20033;-79
2022/04/06 13:25:33;;;;;;;0.57;0.35;;;;;;;;;;5007847;28;20032;-78
2022/04/06 13:27:58;;;;;;;0.73;0.73;;;;;;;;;;5012445;28;20479;-77
2022/04/06 13:30:30;;;;;;;0.00;0.00;;;;;;;;;;5013625;28;20109;-78
2022/04/06 13:32:58;;;;;;;0.00;0.00;;;;;;;;;;5016831;28;20052;-80
2022/04/06 13:35:23;;;;;;;0.10;0.10;;;;;;;;;;5012823;28;20029;-81
2022/04/06 13:37:55;;;;;;;0.03;0.03;;;;;;;;;;5012785;28;20033;-81
2022/04/06 13:40:24;;;;;;;1.92;0.43;;;;;;;;;;5016339;28;20034;-81
2022/04/06 13:42:53;;;;;;;0.10;0.10;;;;;;;;;;5010644;28;20050;-81
2022/04/06 13:45:18;;;;;;;0.10;0.10;;;;;;;;;;5013931;28;20022;-80
2022/04/06 13:47:43;;;;;;;0.52;0.52;;;;;;;;;;5012844;28;20036;-78
2022/04/06 13:50:09;;;;;;;0.00;0.00;;;;;;;;;;5013618;28;20028;-76
2022/04/06 13:52:39;;;;;;;0.20;0.20;;;;;;;;;;5016012;28;20383;-76
2022/04/06 13:55:05;;;;;;;0.43;0.30;;;;;;;;;;5010875;28;20029;-77
2022/04/06 13:57:34;;;;;;;0.30;0.30;;;;;;;;;;5008273;28;20048;-78
2022/04/06 13:59:59;;;;;;;0.00;0.00;;;;;;;;;;5015298;28;20026;-79
2022/04/06 14:02:24;;;;;;;0.20;0.20;;;;;;;;;;5012496;28;20312;-77
2022/04/06 14:04:50;;;;;;;0.03;0.03;;;;;;;;;;5015587;28;20033;-82
2022/04/06 14:07:29;;;;;;;0.10;0.10;;;;;;;;;;5013841;28;20035;-78
2022/04/06 14:09:59;;;;;;;0.00;0.00;;;;;;;;;;5014272;28;20467;-77
2022/04/06 14:12:27;;;;;;;0.10;0.10;;;;;;;;;;5012739;28;20040;-78
2022/04/06 14:14:53;;;;;;;0.00;0.00;;;;;;;;;;5012503;28;20030;-79
2022/04/06 14:17:21;;;;;;;0.20;0.20;;;;;;;;;;5014249;28;20033;-78
2022/04/06 14:19:46;;;;;;;0.00;0.00;;;;;;;;;;5014255;28;20046;-77
2022/04/06 14:22:12;;;;;;;0.00;0.00;;;;;;;;;;5013330;28;20045;-76
2022/04/06 14:25:14;;;;;;;0.00;0.00;;;;;;;;;;5012665;28;20030;-77
2022/04/06 14:27:57;;;;;;;1.85;1.10;;;;;;;;;;5012749;28;20100;-81
2022/04/06 14:30:27;;;;;;;0.10;0.10;;;;;;;;;;5011464;28;20042;-78
2022/04/06 14:33:19;;;;;;;0.65;0.65;;;;;;;;;;5013138;28;20065;-78
2022/04/06 14:35:45;;;;;;;0.22;0.22;;;;;;;;;;5010928;28;20125;-81
2022/04/06 14:38:15;;;;;;;0.00;0.00;;;;;;;;;;5017881;28;20060;-79
2022/04/06 14:40:47;;;;;;;0.10;0.10;;;;;;;;;;5009324;28;20076;-78
2022/04/06 14:43:21;;;;;;;0.40;0.40;;;;;;;;;;5027226;28;20030;-77
2022/04/06 14:45:51;;;;;;;0.20;0.20;;;;;;;;;;5012521;28;20030;-78
2022/04/06 14:48:16;;;;;;;0.15;0.10;;;;;;;;;;5014315;28;20029;-77
2022/04/06 14:50:42;;;;;;;0.52;0.28;;;;;;;;;;5010584;28;20466;-77
2022/04/06 14:53:10;;;;;;;0.47;0.25;;;;;;;;;;5014030;28;20026;-78
2022/04/06 14:55:45;;;;;;;0.15;0.15;;;;;;;;;;5008663;28;20448;-80
2022/04/06 14:58:21;;;;;;;0.75;0.75;;;;;;;;;;5002193;28;20077;-80
2022/04/06 15:00:48;;;;;;;0.32;0.32;;;;;;;;;;4992614;28;20056;-78
2022/04/06 15:03:15;;;;;;;0.00;0.00;;;;;;;;;;5012502;28;20118;-78
2022/04/06 15:05:40;;;;;;;0.10;0.10;;;;;;;;;;5013156;28;20033;-78
2022/04/06 15:08:13;;;;;;;0.98;0.80;;;;;;;;;;5032851;28;20033;-76
2022/04/06 15:10:42;;;;;;;0.08;0.08;;;;;;;;;;5016695;28;20030;-77
2022/04/06 15:13:39;;;;;;;0.00;0.00;;;;;;;;;;5012662;28;20030;-76